createdAt,value
2022-12-01T00:01:33.833Z,7.40
2022-12-01T00:04:01.594Z,7.90
2022-12-01T00:06:29.361Z,8.90
2022-12-01T00:09:19.739Z,8.50
2022-12-01T00:11:48.915Z,8.10
2022-12-01T00:14:17.596Z,7.90
2022-12-01T00:16:45.542Z,8.90
2022-12-01T00:19:13.482Z,8.40
2022-12-01T00:21:41.262Z,8.50
2022-12-01T00:24:10.629Z,7.40
2022-12-01T00:26:38.844Z,7.60
2022-12-01T00:29:07.204Z,9.00
2022-12-01T00:31:35.144Z,6.80
2022-12-01T00:34:06.880Z,6.60
2022-12-01T00:36:37.300Z,7.50
2022-12-01T00:39:05.099Z,8.30
2022-12-01T00:41:33.566Z,8.30
2022-12-01T00:44:01.345Z,8.40
2022-12-01T00:46:29.114Z,8.10
2022-12-01T00:48:56.989Z,7.30
2022-12-01T00:51:24.734Z,8.60
2022-12-01T00:53:52.497Z,8.00
2022-12-01T00:56:21.159Z,9.00
2022-12-01T00:58:48.845Z,9.10
2022-12-01T01:01:16.712Z,8.50
2022-12-01T01:03:44.474Z,7.60
2022-12-01T01:06:12.934Z,8.70
2022-12-01T01:08:41.433Z,9.60
2022-12-01T01:11:09.952Z,10.40
2022-12-01T01:13:39.004Z,9.90
2022-12-01T01:16:13.612Z,9.50
2022-12-01T01:18:41.493Z,10.50
2022-12-01T01:21:14.375Z,9.70
2022-12-01T01:23:43.176Z,9.40
2022-12-01T01:26:17.859Z,9.10
2022-12-01T01:28:47.080Z,10.30
2022-12-01T01:31:18.228Z,9.80
2022-12-01T01:33:46.583Z,8.40
2022-12-01T01:36:15.803Z,9.90
2022-12-01T01:38:43.951Z,9.60
2022-12-01T01:41:12.034Z,10.00
2022-12-01T01:43:48.926Z,9.50
2022-12-01T01:46:19.598Z,10.30
2022-12-01T01:49:00.220Z,8.90
2022-12-01T01:51:40.982Z,9.60
2022-12-01T01:54:19.316Z,9.50
2022-12-01T01:56:50.261Z,10.20
2022-12-01T01:59:28.260Z,10.30
2022-12-01T02:04:39.022Z,10.30
2022-12-01T02:07:08.537Z,11.10
2022-12-01T02:09:36.798Z,9.60
2022-12-01T02:12:28.793Z,10.00
2022-12-01T02:15:18.308Z,11.10
2022-12-01T02:17:59.388Z,10.40
2022-12-01T02:20:27.244Z,10.80
2022-12-01T02:23:34.443Z,10.90
2022-12-01T02:26:15.889Z,11.30
2022-12-01T02:29:17.781Z,10.30
2022-12-01T02:32:04.392Z,11.90
2022-12-01T02:34:46.872Z,12.20
2022-12-01T02:37:34.295Z,13.50
2022-12-01T02:40:14.377Z,13.20
2022-12-01T02:42:54.331Z,9.90
2022-12-01T02:45:51.037Z,12.70
2022-12-01T02:51:05.324Z,11.50
2022-12-01T02:53:34.231Z,12.10
2022-12-01T02:56:07.151Z,13.00
2022-12-01T02:58:34.962Z,12.60
2022-12-01T03:01:14.883Z,10.40
2022-12-01T03:04:20.583Z,12.30
2022-12-01T03:06:57.656Z,12.30
2022-12-01T03:10:03.017Z,12.40
2022-12-01T03:13:18.496Z,12.70
2022-12-01T03:16:08.695Z,12.50
2022-12-01T03:18:44.410Z,13.40
2022-12-01T03:21:24.763Z,12.30
2022-12-01T03:23:58.883Z,12.70
2022-12-01T03:26:30.266Z,12.20
2022-12-01T03:29:09.859Z,12.40
2022-12-01T03:31:43.370Z,12.40
2022-12-01T03:34:39.593Z,10.70
2022-12-01T03:37:31.627Z,13.60
2022-12-01T03:40:02.107Z,12.20
2022-12-01T03:42:37.710Z,13.00
2022-12-01T03:45:10.436Z,13.90
2022-12-01T03:47:40.473Z,13.50
2022-12-01T03:50:13.359Z,14.30
2022-12-01T03:52:53.328Z,12.50
2022-12-01T03:55:24.840Z,12.00
2022-12-01T03:58:23.259Z,10.90
2022-12-01T04:00:57.722Z,11.70
2022-12-01T04:03:26.678Z,11.50
2022-12-01T04:05:54.479Z,14.30
2022-12-01T04:08:22.273Z,13.40
2022-12-01T04:10:49.993Z,13.40
2022-12-01T04:13:24.075Z,12.60
2022-12-01T04:15:53.701Z,13.40
2022-12-01T04:18:22.490Z,14.50
2022-12-01T04:20:50.908Z,13.50
2022-12-01T04:23:37.242Z,12.00
2022-12-01T04:26:05.312Z,13.90
2022-12-01T04:28:33.219Z,13.10
2022-12-01T04:31:00.965Z,12.70
2022-12-01T04:33:29.627Z,13.40
2022-12-01T04:35:59.565Z,14.40
2022-12-01T04:38:30.910Z,12.60
2022-12-01T04:43:26.634Z,13.60
2022-12-01T04:45:54.329Z,11.10
2022-12-01T04:48:22.156Z,12.80
2022-12-01T04:50:50.114Z,12.80
2022-12-01T04:53:17.881Z,12.30
2022-12-01T04:55:45.747Z,11.80
2022-12-01T04:58:13.531Z,11.10
2022-12-01T05:00:41.406Z,10.60
2022-12-01T05:03:14.717Z,11.20
2022-12-01T05:05:43.044Z,13.20
2022-12-01T05:08:11.112Z,11.80
2022-12-01T05:10:38.875Z,11.50
2022-12-01T05:13:06.639Z,13.00
2022-12-01T05:15:34.402Z,11.60
2022-12-01T05:18:02.163Z,12.30
2022-12-01T05:20:48.667Z,11.30
2022-12-01T05:23:17.258Z,13.40
2022-12-01T05:25:45.136Z,12.90
2022-12-01T05:28:12.889Z,14.40
2022-12-01T05:30:40.944Z,11.60
2022-12-01T05:33:08.726Z,11.00
2022-12-01T05:35:36.887Z,11.60
2022-12-01T05:38:07.991Z,12.10
2022-12-01T05:40:37.236Z,12.60
2022-12-01T05:43:05.957Z,13.00
2022-12-01T05:45:34.814Z,12.70
2022-12-01T05:48:03.079Z,11.70
2022-12-01T05:50:31.032Z,12.20
2022-12-01T05:52:58.804Z,11.10
2022-12-01T05:55:26.503Z,10.70
2022-12-01T05:57:54.432Z,12.20
2022-12-01T06:00:22.401Z,10.70
2022-12-01T06:02:50.093Z,12.00
2022-12-01T06:05:17.926Z,11.90
2022-12-01T06:07:45.698Z,12.20
2022-12-01T06:10:13.454Z,11.60
2022-12-01T06:12:41.190Z,11.80
2022-12-01T06:15:11.666Z,12.10
2022-12-01T06:17:40.568Z,11.70
2022-12-01T06:20:10.155Z,13.20
2022-12-01T06:22:38.150Z,12.00
2022-12-01T06:25:06.979Z,12.60
2022-12-01T06:27:34.728Z,11.20
2022-12-01T06:30:03.139Z,12.90
2022-12-01T06:32:30.937Z,13.50
2022-12-01T06:34:58.729Z,12.40
2022-12-01T06:37:27.868Z,12.20
2022-12-01T06:39:55.711Z,12.90
2022-12-01T06:42:23.606Z,14.30
2022-12-01T06:44:51.349Z,13.60
2022-12-01T06:47:19.105Z,15.80
2022-12-01T06:49:47.235Z,12.70
2022-12-01T06:52:15.568Z,12.30
2022-12-01T06:54:43.268Z,13.00
2022-12-01T06:57:11.074Z,12.20
2022-12-01T06:59:38.946Z,13.50
2022-12-01T07:02:06.945Z,12.00
2022-12-01T07:04:34.689Z,13.00
2022-12-01T07:07:05.383Z,12.30
2022-12-01T07:09:34.043Z,11.40
2022-12-01T07:12:01.868Z,13.60
2022-12-01T07:14:31.727Z,11.80
2022-12-01T07:17:00.036Z,11.60
2022-12-01T07:19:28.038Z,13.30
2022-12-01T07:21:55.789Z,12.10
2022-12-01T07:24:23.554Z,13.40
2022-12-01T07:26:51.319Z,13.40
2022-12-01T07:29:19.334Z,14.30
2022-12-01T07:31:47.012Z,13.90
2022-12-01T07:34:15.083Z,13.80
2022-12-01T07:36:42.906Z,13.70
2022-12-01T07:39:10.622Z,15.40
2022-12-01T07:41:38.611Z,14.90
2022-12-01T07:44:06.895Z,14.20
2022-12-01T07:46:34.813Z,13.50
2022-12-01T07:49:06.248Z,14.00
2022-12-01T07:51:35.231Z,13.00
2022-12-01T07:54:05.171Z,11.20
2022-12-01T07:56:33.488Z,13.00
2022-12-01T07:59:01.248Z,13.90
2022-12-01T08:01:29.005Z,11.50
2022-12-01T08:03:58.233Z,13.60
2022-12-01T08:06:26.997Z,12.10
2022-12-01T08:08:55.067Z,12.80
2022-12-01T08:11:25.605Z,11.60
2022-12-01T08:13:54.012Z,13.00
2022-12-01T08:16:23.534Z,13.00
2022-12-01T08:18:51.445Z,12.50
2022-12-01T08:21:21.872Z,12.00
2022-12-01T08:23:54.859Z,11.10
2022-12-01T08:26:24.170Z,11.80
2022-12-01T08:28:52.032Z,12.90
2022-12-01T08:31:24.111Z,14.30
2022-12-01T08:33:52.725Z,11.60
2022-12-01T08:36:21.944Z,14.40
2022-12-01T08:38:53.024Z,12.70
2022-12-01T08:41:22.167Z,15.30
2022-12-01T08:43:57.956Z,25.50
2022-12-01T08:46:29.494Z,16.50
2022-12-01T08:48:58.073Z,12.70
2022-12-01T08:51:26.669Z,11.60
2022-12-01T08:53:56.500Z,12.80
2022-12-01T08:56:26.516Z,12.70
2022-12-01T08:58:55.547Z,13.60
2022-12-01T09:01:25.811Z,13.20
2022-12-01T09:04:06.180Z,12.50
2022-12-01T09:06:42.842Z,11.40
2022-12-01T09:09:13.896Z,12.60
2022-12-01T09:11:43.987Z,12.20
2022-12-01T09:14:12.911Z,13.00
2022-12-01T09:16:42.247Z,12.60
2022-12-01T09:19:12.986Z,13.20
2022-12-01T09:21:43.486Z,12.50
2022-12-01T09:24:13.981Z,12.30
2022-12-01T09:26:42.647Z,13.70
2022-12-01T09:29:13.724Z,14.60
2022-12-01T09:31:42.743Z,14.80
2022-12-01T09:34:14.149Z,22.90
2022-12-01T09:36:42.351Z,20.70
2022-12-01T09:39:14.080Z,16.00
2022-12-01T09:41:50.002Z,14.60
2022-12-01T09:44:28.647Z,14.00
2022-12-01T09:47:03.965Z,15.80
2022-12-01T09:50:07.021Z,10.80
2022-12-01T09:52:58.808Z,13.10
2022-12-01T09:55:29.128Z,12.50
2022-12-01T09:57:59.348Z,12.30
2022-12-01T10:00:34.284Z,12.80
2022-12-01T10:03:11.487Z,12.80
2022-12-01T10:06:18.587Z,14.60
2022-12-01T10:08:44.087Z,13.50
2022-12-01T10:11:21.570Z,13.20
2022-12-01T10:13:49.290Z,12.10
2022-12-01T10:16:27.945Z,10.80
2022-12-01T10:19:01.958Z,12.20
2022-12-01T10:21:38.903Z,12.60
2022-12-01T10:24:22.008Z,10.90
2022-12-01T10:26:59.431Z,10.70
2022-12-01T10:29:35.588Z,11.30
2022-12-01T10:32:14.928Z,13.50
2022-12-01T10:34:46.610Z,13.30
2022-12-01T10:37:24.170Z,13.40
2022-12-01T10:39:54.552Z,12.10
2022-12-01T10:42:34.345Z,13.30
2022-12-01T10:45:10.847Z,11.90
2022-12-01T10:47:38.700Z,13.10
2022-12-01T10:50:07.579Z,13.00
2022-12-01T10:52:37.985Z,12.10
2022-12-01T10:55:26.584Z,11.90
2022-12-01T10:57:56.987Z,13.70
2022-12-01T11:00:57.915Z,12.30
2022-12-01T11:03:22.586Z,13.10
2022-12-01T11:05:58.316Z,14.50
2022-12-01T11:08:37.279Z,14.20
2022-12-01T11:11:05.444Z,11.80
2022-12-01T11:13:37.195Z,14.80
2022-12-01T11:16:07.231Z,13.80
2022-12-01T11:18:38.615Z,15.10
2022-12-01T11:21:08.555Z,12.30
2022-12-01T11:23:55.960Z,13.60
2022-12-01T11:26:31.179Z,13.40
2022-12-01T11:29:03.511Z,13.20
2022-12-01T11:31:47.052Z,13.90
2022-12-01T11:34:25.839Z,16.40
2022-12-01T11:36:56.960Z,15.00
2022-12-01T11:39:24.729Z,15.40
2022-12-01T11:41:57.907Z,14.70
2022-12-01T11:44:50.361Z,17.90
2022-12-01T11:50:25.904Z,15.40
2022-12-01T11:52:53.635Z,14.50
2022-12-01T11:55:23.889Z,15.50
2022-12-01T11:57:54.781Z,19.20
2022-12-01T12:00:28.955Z,18.20
2022-12-01T12:03:05.796Z,15.80
2022-12-01T12:05:57.653Z,15.50
2022-12-01T12:08:58.638Z,14.30
2022-12-01T12:11:30.623Z,15.70
2022-12-01T12:14:20.568Z,15.00
2022-12-01T12:16:57.452Z,16.70
2022-12-01T12:19:59.967Z,17.40
2022-12-01T12:22:55.735Z,15.30
2022-12-01T12:26:11.155Z,16.10
2022-12-01T12:28:57.247Z,17.80
2022-12-01T12:31:40.005Z,15.80
2022-12-01T12:34:07.973Z,17.80
2022-12-01T12:36:45.066Z,18.00
2022-12-01T12:39:18.811Z,20.30
2022-12-01T12:41:51.533Z,19.80
2022-12-01T12:44:57.953Z,21.00
2022-12-01T12:47:40.464Z,20.20
2022-12-01T12:50:39.359Z,18.00
2022-12-01T12:53:21.278Z,21.00
2022-12-01T12:55:53.294Z,19.50
2022-12-01T12:58:29.188Z,19.00
2022-12-01T13:01:23.819Z,18.70
2022-12-01T13:03:59.029Z,18.30
2022-12-01T13:07:05.432Z,19.30
2022-12-01T13:09:44.496Z,17.10
2022-12-01T13:12:26.380Z,18.70
2022-12-01T13:15:01.425Z,19.80
2022-12-01T13:17:41.301Z,19.80
2022-12-01T13:20:18.262Z,18.90
2022-12-01T13:22:47.258Z,22.20
2022-12-01T13:25:25.904Z,20.00
2022-12-01T13:27:55.366Z,17.90
2022-12-01T13:30:25.924Z,22.80
2022-12-01T13:33:05.270Z,22.10
2022-12-01T13:35:36.896Z,20.30
2022-12-01T13:40:44.450Z,21.70
2022-12-01T13:43:30.895Z,21.90
2022-12-01T13:46:02.908Z,18.90
2022-12-01T13:48:36.743Z,22.40
2022-12-01T13:51:05.173Z,21.50
2022-12-01T13:53:36.184Z,21.20
2022-12-01T13:56:04.064Z,22.00
2022-12-01T13:58:34.698Z,20.50
2022-12-01T14:01:22.158Z,22.90
2022-12-01T14:04:02.666Z,20.10
2022-12-01T14:06:38.539Z,18.90
2022-12-01T14:09:18.167Z,17.80
2022-12-01T14:12:20.239Z,16.80
2022-12-01T14:14:59.731Z,19.30
2022-12-01T14:17:32.810Z,15.30
2022-12-01T14:20:19.421Z,18.00
2022-12-01T14:23:02.172Z,17.60
2022-12-01T14:25:31.778Z,15.80
2022-12-01T14:28:03.782Z,16.50
2022-12-01T14:30:40.717Z,15.00
2022-12-01T14:33:40.045Z,17.40
2022-12-01T14:36:23.058Z,15.30
2022-12-01T14:38:59.176Z,13.60
2022-12-01T14:41:31.986Z,13.00
2022-12-01T14:44:06.913Z,14.30
2022-12-01T14:46:40.808Z,13.40
2022-12-01T14:49:20.281Z,12.70
2022-12-01T14:51:53.264Z,12.30
2022-12-01T14:54:30.129Z,12.00
2022-12-01T14:57:06.803Z,10.50
2022-12-01T14:59:36.928Z,12.70
2022-12-01T15:02:12.040Z,10.80
2022-12-01T15:05:13.010Z,10.70
2022-12-01T15:07:43.633Z,10.50
2022-12-01T15:10:36.985Z,11.10
2022-12-01T15:13:30.345Z,9.80
2022-12-01T15:16:04.135Z,8.80
2022-12-01T15:18:39.804Z,8.60
2022-12-01T15:21:18.536Z,7.20
2022-12-01T15:23:58.678Z,7.70
2022-12-01T15:26:35.137Z,9.60
2022-12-01T15:29:13.763Z,18.10
2022-12-01T15:31:44.827Z,8.00
2022-12-01T15:34:19.623Z,7.50
2022-12-01T15:36:48.549Z,8.40
2022-12-01T15:39:19.192Z,7.20
2022-12-01T15:41:53.782Z,7.50
2022-12-01T15:44:28.241Z,8.40
2022-12-01T15:46:56.835Z,8.40
2022-12-01T15:49:33.627Z,7.70
2022-12-01T15:52:12.699Z,8.70
2022-12-01T15:54:40.440Z,8.90
2022-12-01T15:57:09.120Z,10.00
2022-12-01T15:59:44.366Z,9.50
2022-12-01T16:02:32.888Z,9.90
2022-12-01T16:05:08.895Z,9.00
2022-12-01T16:08:12.289Z,9.10
2022-12-01T16:10:30.482Z,9.70
2022-12-01T16:13:38.511Z,10.40
2022-12-01T16:16:36.467Z,8.60
2022-12-01T16:19:07.371Z,9.20
2022-12-01T16:21:43.054Z,10.00
2022-12-01T16:24:17.152Z,9.60
2022-12-01T16:27:06.690Z,10.10
2022-12-01T16:29:48.202Z,9.50
2022-12-01T16:32:40.094Z,10.10
2022-12-01T16:35:27.596Z,9.90
2022-12-01T16:37:55.596Z,11.20
2022-12-01T16:40:23.522Z,10.90
2022-12-01T16:42:51.355Z,10.50
2022-12-01T16:45:20.242Z,10.60
2022-12-01T16:47:49.457Z,9.00
2022-12-01T16:50:20.111Z,10.80
2022-12-01T16:52:48.024Z,10.30
2022-12-01T16:55:48.243Z,11.10
2022-12-01T16:58:16.060Z,10.50
2022-12-01T17:00:43.933Z,11.10
2022-12-01T17:03:13.742Z,11.20
2022-12-01T17:05:41.609Z,12.00
2022-12-01T17:08:09.315Z,11.70
2022-12-01T17:10:41.500Z,12.90
2022-12-01T17:13:09.872Z,12.10
2022-12-01T17:15:45.260Z,13.00
2022-12-01T17:18:15.285Z,11.50
2022-12-01T17:20:43.557Z,14.10
2022-12-01T17:23:11.679Z,13.30
2022-12-01T17:25:42.349Z,12.80
2022-12-01T17:28:10.113Z,13.20
2022-12-01T17:30:38.181Z,12.50
2022-12-01T17:33:05.944Z,14.30
2022-12-01T17:35:33.696Z,12.70
2022-12-01T17:38:01.471Z,13.10
2022-12-01T17:40:29.467Z,16.70
2022-12-01T17:42:57.202Z,14.20
2022-12-01T17:45:24.967Z,15.00
2022-12-01T17:47:55.085Z,17.70
2022-12-01T17:50:22.847Z,16.40
2022-12-01T17:52:51.635Z,18.00
2022-12-01T17:55:19.706Z,21.00
2022-12-01T17:57:47.651Z,16.90
2022-12-01T18:00:16.052Z,18.60
2022-12-01T18:02:43.967Z,16.00
2022-12-01T18:05:11.915Z,16.50
2022-12-01T18:07:39.660Z,17.30
2022-12-01T18:10:07.929Z,14.50
2022-12-01T18:12:35.686Z,15.00
2022-12-01T18:15:04.771Z,15.40
2022-12-01T18:17:32.566Z,14.70
2022-12-01T18:20:00.380Z,16.70
2022-12-01T18:22:28.388Z,16.20
2022-12-01T18:24:56.782Z,16.00
2022-12-01T18:27:24.924Z,14.80
2022-12-01T18:29:52.571Z,17.50
2022-12-01T18:32:20.336Z,17.00
2022-12-01T18:34:48.549Z,14.80
2022-12-01T18:37:16.833Z,14.80
2022-12-01T18:39:45.079Z,16.10
2022-12-01T18:42:12.817Z,15.20
2022-12-01T18:44:42.350Z,14.20
2022-12-01T18:47:10.246Z,16.60
2022-12-01T18:49:38.199Z,14.40
2022-12-01T18:52:05.963Z,14.20
2022-12-01T18:54:35.765Z,14.70
2022-12-01T18:57:03.655Z,16.00
2022-12-01T18:59:31.350Z,14.90
2022-12-01T19:01:59.136Z,14.10
2022-12-01T19:04:26.899Z,14.80
2022-12-01T19:06:55.547Z,15.40
2022-12-01T19:09:23.350Z,15.30
2022-12-01T19:11:58.891Z,14.70
2022-12-01T19:14:28.288Z,12.50
2022-12-01T19:16:56.773Z,16.80
2022-12-01T19:19:24.628Z,15.60
2022-12-01T19:21:53.328Z,14.20
2022-12-01T19:24:21.156Z,14.80
2022-12-01T19:26:48.920Z,15.80
2022-12-01T19:29:16.696Z,13.30
2022-12-01T19:31:44.496Z,13.90
2022-12-01T19:34:12.276Z,15.00
2022-12-01T19:36:40.110Z,14.70
2022-12-01T19:39:08.301Z,15.90
2022-12-01T19:41:36.154Z,12.10
2022-12-01T19:44:04.495Z,13.10
2022-12-01T19:46:32.215Z,15.90
2022-12-01T19:49:01.691Z,13.60
2022-12-01T19:51:32.429Z,14.80
2022-12-01T19:54:00.190Z,15.00
2022-12-01T19:56:28.440Z,15.80
2022-12-01T19:58:57.558Z,15.00
2022-12-01T20:01:26.804Z,14.10
2022-12-01T20:03:54.942Z,13.90
2022-12-01T20:06:25.556Z,12.20
2022-12-01T20:08:56.051Z,12.30
2022-12-01T20:11:24.688Z,13.50
2022-12-01T20:13:53.162Z,12.70
2022-12-01T20:16:23.811Z,11.70
2022-12-01T20:18:53.073Z,12.10
2022-12-01T20:21:23.095Z,14.30
2022-12-01T20:24:02.940Z,14.70
2022-12-01T20:26:36.987Z,13.70
2022-12-01T20:29:28.264Z,15.90
2022-12-01T20:31:59.088Z,13.40
2022-12-01T20:34:31.176Z,13.30
2022-12-01T20:36:59.358Z,11.90
2022-12-01T20:39:28.709Z,13.60
2022-12-01T20:41:56.503Z,12.80
2022-12-01T20:44:24.219Z,13.10
2022-12-01T20:46:52.594Z,14.10
2022-12-01T20:49:20.816Z,13.10
2022-12-01T20:51:48.814Z,12.00
2022-12-01T20:54:33.482Z,12.50
2022-12-01T20:57:01.394Z,12.60
2022-12-01T20:59:29.290Z,13.70
2022-12-01T21:01:57.085Z,12.80
2022-12-01T21:04:24.974Z,12.20
2022-12-01T21:06:56.282Z,11.70
2022-12-01T21:09:24.972Z,12.00
2022-12-01T21:12:11.309Z,11.20
2022-12-01T21:14:52.734Z,13.30
2022-12-01T21:17:34.287Z,16.20
2022-12-01T21:20:08.883Z,13.60
2022-12-01T21:22:36.728Z,15.60
2022-12-01T21:25:15.926Z,14.70
2022-12-01T21:27:43.665Z,14.70
2022-12-01T21:30:25.940Z,11.90
2022-12-01T21:32:54.257Z,12.60
2022-12-01T21:35:27.047Z,13.20
2022-12-01T21:38:00.548Z,11.60
2022-12-01T21:40:28.826Z,14.80
2022-12-01T21:43:01.604Z,13.00
2022-12-01T21:45:32.236Z,11.60
2022-12-01T21:48:06.666Z,11.20
2022-12-01T21:50:34.520Z,12.60
2022-12-01T21:53:02.297Z,14.60
2022-12-01T21:55:33.349Z,13.50
2022-12-01T21:58:01.415Z,12.90
2022-12-01T22:00:37.140Z,15.50
2022-12-01T22:03:21.880Z,15.70
2022-12-01T22:06:13.759Z,15.00
2022-12-01T22:08:43.272Z,14.10
2022-12-01T22:11:11.004Z,11.20
2022-12-01T22:13:49.668Z,10.50
2022-12-01T22:16:40.623Z,14.00
2022-12-01T22:19:27.185Z,13.50
2022-12-01T22:22:00.917Z,14.70
2022-12-01T22:24:44.191Z,16.20
2022-12-01T22:27:30.595Z,15.10
2022-12-01T22:30:01.501Z,14.10
2022-12-01T22:32:42.777Z,14.00
2022-12-01T22:35:24.986Z,12.50
2022-12-01T22:37:59.923Z,15.80
2022-12-01T22:40:38.628Z,19.00
2022-12-01T22:43:15.815Z,15.10
2022-12-01T22:45:46.664Z,14.00
2022-12-01T22:48:33.456Z,15.20
2022-12-01T22:51:29.635Z,14.60
2022-12-01T22:54:15.676Z,17.60
2022-12-01T22:56:44.953Z,15.00
2022-12-01T22:59:21.558Z,14.90
2022-12-01T23:01:55.668Z,15.60
2022-12-01T23:04:37.940Z,13.10
2022-12-01T23:07:10.351Z,14.70
2022-12-01T23:09:43.671Z,13.90
2022-12-01T23:12:11.331Z,15.10
2022-12-01T23:14:43.958Z,15.40
2022-12-01T23:17:32.812Z,13.50
2022-12-01T23:20:25.782Z,13.40
2022-12-01T23:22:58.894Z,13.50
2022-12-01T23:25:28.209Z,12.60
2022-12-01T23:28:00.277Z,11.80
2022-12-01T23:30:28.092Z,15.30
2022-12-01T23:33:19.509Z,13.90
2022-12-01T23:36:05.600Z,12.80
2022-12-01T23:38:43.405Z,11.70
2022-12-01T23:41:16.588Z,10.90
2022-12-01T23:43:45.881Z,12.50
2022-12-01T23:46:20.494Z,10.20
2022-12-01T23:48:54.113Z,12.20
2022-12-01T23:51:30.844Z,10.20
2022-12-01T23:54:01.618Z,11.60
2022-12-01T23:56:31.736Z,10.00
2022-12-01T23:59:01.252Z,11.00
